Airfield :
LOGIN :

Register | Disclaimer

   EN    FR    IT 

 










Legend :    VFR   Marginal VFR   IFR   Intensive IFR   Very Intensive IFR
Visi :
Ceiling :
>= 8 km
>= 3000ft
5 to 8 km
1000 to 3000 ft
1500m to 5 km
500 to 1000 ft
800 to 1500m
200 to 500 ft
< 800m
< 200 ft
Symbols :   Thunderstorms  Fog  Heavy snow  Heavy precipitations  Wind > 20 kt
SIGMETs :     Misc.  Thunderstorms  Icing  Turbulence  Mountain Waves  Volcanic Ashes






- Airport Elevation : 37 ft
- IATA code : OLB


LIEO - Olbia Costa Smeralda

CURRENT METAR :
  • 280850Z AUTO VRB01KT 9999 BKN150/// 08/06 Q1017

EXPIRED METARs :
  • 280820Z AUTO 25002KT 9999 BKN140/// 08/06 Q1017
  • 280750Z AUTO 29005KT 260V320 9999 BKN130/// 08/05 Q1017
  • 280720Z AUTO 20003KT 9999 BKN140/// BKN190/// 08/05 Q1018
  • 280650Z AUTO 20004KT 160V220 9999 BKN140/// 08/05 Q1018
  • 280620Z AUTO 18004KT 150V210 9999 BKN130/// 06/05 Q1019

TAF TAF LIEO
Valid from the 28 at 06:00 until the 29 at 06:00 UTC


280500Z 2806/2906 VRB05KT 9999 SCT030
BECMG 2810/2812 10010KT
BECMG 2818/2820 24006KT
TEMPO 2821/2906 SHRA



MET'MAP, your aeronautical weather chart ! - Copyright ORBIFLY December 2007 - Disclaimer

ORBIFLY MET'MAP TEAM :

Programming & Development : Alexandra Zaïnal
Original concept : Baudouin d'Aumeries
Technical & hardware support : Manuel Goepfert
Assistance : Marc-Olivier Méhu




SOURCES & CREDITS :

   NOAA